createdAt,value
2019-02-18T00:01:29.238Z,66.90
2019-02-18T00:03:58.510Z,67.00
2019-02-18T00:06:27.471Z,67.20
2019-02-18T00:08:56.541Z,67.40
2019-02-18T00:11:25.618Z,67.30
2019-02-18T00:13:54.708Z,67.30
2019-02-18T00:16:24.066Z,67.40
2019-02-18T00:18:53.038Z,67.30
2019-02-18T00:21:22.023Z,67.50
2019-02-18T00:23:51.698Z,67.90
2019-02-18T00:26:20.763Z,68.10
2019-02-18T00:28:49.981Z,67.70
2019-02-18T00:31:19.287Z,67.30
2019-02-18T00:33:48.417Z,67.40
2019-02-18T00:36:17.731Z,67.30
2019-02-18T00:38:47.276Z,67.10
2019-02-18T00:41:16.393Z,67.10
2019-02-18T00:43:45.478Z,67.00
2019-02-18T00:46:16.002Z,67.00
2019-02-18T00:48:45.818Z,67.20
2019-02-18T00:51:14.880Z,66.90
2019-02-18T00:53:44.040Z,67.10
2019-02-18T00:56:13.127Z,67.00
2019-02-18T00:58:43.733Z,66.80
2019-02-18T01:01:13.641Z,66.80
2019-02-18T01:03:42.702Z,66.80
2019-02-18T01:06:11.761Z,66.80
2019-02-18T01:08:40.874Z,66.90
2019-02-18T01:11:09.925Z,66.90
2019-02-18T01:13:38.978Z,66.70
2019-02-18T01:16:08.230Z,66.50
2019-02-18T01:18:37.196Z,66.70
2019-02-18T01:21:06.264Z,67.60
2019-02-18T01:23:35.793Z,66.80
2019-02-18T01:26:04.869Z,66.60
2019-02-18T01:28:34.006Z,66.60
2019-02-18T01:31:04.630Z,66.60
2019-02-18T01:33:33.752Z,66.60
2019-02-18T01:36:02.799Z,66.70
2019-02-18T01:38:31.823Z,66.50
2019-02-18T01:41:00.874Z,66.40
2019-02-18T01:43:30.027Z,66.60
2019-02-18T01:45:59.501Z,66.50
2019-02-18T01:48:28.814Z,66.30
2019-02-18T01:50:57.787Z,66.40
2019-02-18T01:53:26.888Z,67.10
2019-02-18T01:55:57.586Z,66.20
2019-02-18T01:58:26.630Z,66.30
2019-02-18T02:00:56.843Z,66.50
2019-02-18T02:03:25.813Z,66.80
2019-02-18T02:05:54.878Z,66.30
2019-02-18T02:08:23.872Z,66.20
2019-02-18T02:10:52.976Z,66.10
2019-02-18T02:13:26.773Z,66.20
2019-02-18T02:15:55.875Z,66.20
2019-02-18T02:18:24.927Z,66.00
2019-02-18T02:20:54.537Z,66.10
2019-02-18T02:23:23.893Z,66.10
2019-02-18T02:25:52.874Z,66.00
2019-02-18T02:28:22.190Z,66.00
2019-02-18T02:30:51.167Z,66.00
2019-02-18T02:33:20.234Z,66.10
2019-02-18T02:35:50.404Z,66.20
2019-02-18T02:38:19.468Z,66.20
2019-02-18T02:40:48.506Z,66.10
2019-02-18T02:43:17.886Z,66.10
2019-02-18T02:45:47.246Z,66.10
2019-02-18T02:48:17.225Z,65.90
2019-02-18T02:50:46.803Z,65.90
2019-02-18T02:53:15.847Z,66.00
2019-02-18T02:55:44.903Z,66.00
2019-02-18T02:58:13.902Z,65.80
2019-02-18T03:00:42.939Z,65.90
2019-02-18T03:03:11.981Z,65.90
2019-02-18T03:05:41.367Z,65.90
2019-02-18T03:08:19.867Z,65.80
2019-02-18T03:10:41.129Z,65.80
2019-02-18T03:13:10.186Z,65.80
2019-02-18T03:15:39.248Z,65.70
2019-02-18T03:18:08.305Z,65.70
2019-02-18T03:20:37.338Z,65.50
2019-02-18T03:23:06.320Z,65.70
2019-02-18T03:25:35.360Z,65.70
2019-02-18T03:28:22.923Z,65.70
2019-02-18T03:31:05.258Z,65.60
2019-02-18T03:33:38.287Z,65.80
2019-02-18T03:36:07.274Z,65.60
2019-02-18T03:38:36.323Z,65.60
2019-02-18T03:41:05.657Z,65.70
2019-02-18T03:43:35.023Z,65.70
2019-02-18T03:46:04.430Z,65.70
2019-02-18T03:48:34.179Z,65.80
2019-02-18T03:51:03.194Z,65.70
2019-02-18T03:53:32.282Z,65.70
2019-02-18T03:56:01.604Z,65.90
2019-02-18T03:58:30.581Z,65.70
2019-02-18T04:00:59.646Z,65.70
2019-02-18T04:03:28.838Z,65.70
2019-02-18T04:05:57.866Z,65.60
2019-02-18T04:08:26.934Z,65.50
2019-02-18T04:10:56.011Z,65.70
2019-02-18T04:13:25.048Z,65.40
2019-02-18T04:15:54.014Z,65.30
2019-02-18T04:18:23.490Z,65.40
2019-02-18T04:20:52.532Z,65.00
2019-02-18T04:23:21.514Z,65.00
2019-02-18T04:25:50.895Z,64.80
2019-02-18T04:28:19.875Z,64.90
2019-02-18T04:30:48.850Z,64.90
2019-02-18T04:33:17.869Z,65.70
2019-02-18T04:35:46.845Z,65.10
2019-02-18T04:38:15.827Z,65.50
2019-02-18T04:40:45.145Z,65.20
2019-02-18T04:43:14.191Z,64.30
2019-02-18T04:45:43.238Z,64.00
2019-02-18T04:48:12.234Z,63.90
2019-02-18T04:50:42.211Z,63.90
2019-02-18T04:53:11.242Z,63.90
2019-02-18T04:55:40.326Z,64.00
2019-02-18T04:58:09.306Z,64.30
2019-02-18T05:00:38.434Z,64.60
2019-02-18T05:03:07.949Z,64.60
2019-02-18T05:05:36.933Z,64.70
2019-02-18T05:08:05.932Z,65.30
2019-02-18T05:10:34.995Z,65.50
2019-02-18T05:13:04.878Z,64.40
2019-02-18T05:15:34.110Z,64.30
2019-02-18T05:18:03.932Z,64.20
2019-02-18T05:20:32.976Z,64.10
2019-02-18T05:23:01.942Z,64.30
2019-02-18T05:25:30.999Z,64.20
2019-02-18T05:27:59.981Z,64.10
2019-02-18T05:30:29.649Z,64.00
2019-02-18T05:32:59.856Z,64.00
2019-02-18T05:35:28.908Z,64.40
2019-02-18T05:37:57.966Z,64.50
2019-02-18T05:40:27.467Z,64.60
2019-02-18T05:42:56.510Z,64.40
2019-02-18T05:45:25.493Z,64.20
2019-02-18T05:47:55.001Z,64.20
2019-02-18T05:50:24.371Z,64.20
2019-02-18T05:52:53.442Z,64.30
2019-02-18T05:55:22.590Z,64.30
2019-02-18T05:57:51.652Z,64.10
2019-02-18T06:00:20.722Z,64.10
2019-02-18T06:02:50.203Z,64.00
2019-02-18T06:05:19.178Z,63.90
2019-02-18T06:07:48.170Z,64.00
2019-02-18T06:10:17.256Z,64.00
2019-02-18T06:12:46.263Z,64.70
2019-02-18T06:15:15.236Z,64.20
2019-02-18T06:17:44.752Z,63.90
2019-02-18T06:20:13.795Z,63.80
2019-02-18T06:22:42.774Z,64.20
2019-02-18T06:25:11.848Z,64.00
2019-02-18T06:27:40.822Z,63.70
2019-02-18T06:30:10.201Z,63.90
2019-02-18T06:32:39.418Z,63.80
2019-02-18T06:35:08.535Z,63.70
2019-02-18T06:37:37.573Z,63.90
2019-02-18T06:40:08.164Z,64.10
2019-02-18T06:42:37.478Z,64.30
2019-02-18T06:45:36.015Z,64.00
2019-02-18T06:48:14.087Z,64.20
2019-02-18T06:50:43.842Z,64.50
2019-02-18T06:53:12.850Z,64.50
2019-02-18T06:55:41.983Z,64.10
2019-02-18T06:58:19.891Z,63.90
2019-02-18T07:00:53.991Z,63.90
2019-02-18T07:03:27.990Z,64.30
2019-02-18T07:06:07.522Z,64.20
2019-02-18T07:08:50.966Z,64.30
2019-02-18T07:11:31.515Z,64.40
2019-02-18T07:14:00.679Z,64.40
2019-02-18T07:16:29.774Z,64.60
2019-02-18T07:19:00.085Z,64.60
2019-02-18T07:21:29.092Z,64.60
2019-02-18T07:23:58.150Z,64.60
2019-02-18T07:26:27.202Z,64.60
2019-02-18T07:28:57.398Z,64.50
2019-02-18T07:31:26.410Z,64.50
2019-02-18T07:33:55.472Z,64.60
2019-02-18T07:36:24.585Z,64.60
2019-02-18T07:38:53.757Z,64.40
2019-02-18T07:41:22.837Z,64.60
2019-02-18T07:43:52.570Z,64.50
2019-02-18T07:46:21.634Z,64.40
2019-02-18T07:48:50.967Z,64.40
2019-02-18T07:51:20.213Z,64.30
2019-02-18T07:53:49.276Z,64.20
2019-02-18T07:56:18.285Z,64.20
2019-02-18T07:58:47.300Z,64.10
2019-02-18T08:01:16.282Z,64.10
2019-02-18T08:03:45.336Z,63.90
2019-02-18T08:06:15.034Z,63.80
2019-02-18T08:08:44.079Z,63.80
2019-02-18T08:11:13.071Z,63.70
2019-02-18T08:13:42.186Z,63.50
2019-02-18T08:16:11.190Z,63.40
2019-02-18T08:18:40.233Z,63.50
2019-02-18T08:21:09.230Z,63.30
2019-02-18T08:23:38.322Z,63.30
2019-02-18T08:26:07.362Z,63.40
2019-02-18T08:28:36.615Z,63.30
2019-02-18T08:31:05.600Z,63.30
2019-02-18T08:33:34.646Z,63.30
2019-02-18T08:36:03.767Z,63.30
2019-02-18T08:38:32.807Z,63.00
2019-02-18T08:41:01.858Z,63.00
2019-02-18T08:43:31.837Z,62.90
2019-02-18T08:46:01.527Z,62.90
2019-02-18T08:48:30.590Z,63.60
2019-02-18T08:50:59.650Z,63.60
2019-02-18T08:53:35.528Z,63.40
2019-02-18T08:56:04.733Z,63.20
2019-02-18T08:58:33.798Z,64.10
2019-02-18T09:01:03.093Z,64.10
2019-02-18T09:03:32.908Z,64.90
2019-02-18T09:06:01.962Z,64.30
2019-02-18T09:08:30.949Z,63.70
2019-02-18T09:11:00.801Z,63.50
2019-02-18T09:13:29.855Z,63.30
2019-02-18T09:16:00.391Z,63.10
2019-02-18T09:18:29.667Z,62.70
2019-02-18T09:20:58.727Z,62.50
2019-02-18T09:23:55.564Z,62.30
2019-02-18T09:26:25.209Z,62.10
2019-02-18T09:28:54.263Z,62.00
2019-02-18T09:31:28.038Z,62.00
2019-02-18T09:33:57.080Z,61.60
2019-02-18T09:36:26.118Z,61.70
2019-02-18T09:38:55.666Z,61.70
2019-02-18T09:41:24.721Z,61.70
2019-02-18T09:43:53.949Z,61.70
2019-02-18T09:46:23.876Z,61.70
2019-02-18T09:48:53.000Z,61.80
2019-02-18T09:51:22.048Z,61.70
2019-02-18T09:53:51.138Z,61.70
2019-02-18T09:56:20.197Z,61.70
2019-02-18T09:58:50.255Z,61.80
2019-02-18T10:01:19.960Z,61.80
2019-02-18T10:03:48.938Z,61.90
2019-02-18T10:06:17.926Z,61.90
2019-02-18T10:08:47.000Z,62.50
2019-02-18T10:11:16.129Z,61.90
2019-02-18T10:13:45.173Z,62.00
2019-02-18T10:16:14.238Z,61.90
2019-02-18T10:18:43.207Z,62.00
2019-02-18T10:21:12.263Z,61.90
2019-02-18T10:23:41.287Z,62.00
2019-02-18T10:26:10.602Z,61.90
2019-02-18T10:28:39.730Z,62.00
2019-02-18T10:31:08.843Z,62.10
2019-02-18T10:33:37.923Z,62.10
2019-02-18T10:36:06.977Z,62.00
2019-02-18T10:38:36.167Z,62.20
2019-02-18T10:41:07.161Z,62.90
2019-02-18T10:43:36.077Z,62.10
2019-02-18T10:46:05.805Z,62.10
2019-02-18T10:48:34.869Z,62.20
2019-02-18T10:51:03.922Z,62.20
2019-02-18T10:53:33.106Z,62.30
2019-02-18T10:56:05.031Z,62.30
2019-02-18T10:58:34.022Z,62.30
2019-02-18T11:01:04.674Z,62.30
2019-02-18T11:03:33.758Z,62.40
2019-02-18T11:06:05.651Z,62.40
2019-02-18T11:08:34.732Z,62.30
2019-02-18T11:11:03.794Z,62.50
2019-02-18T11:13:32.940Z,62.30
2019-02-18T11:16:02.004Z,62.40
2019-02-18T11:18:31.003Z,62.30
2019-02-18T11:21:00.074Z,62.40
2019-02-18T11:23:29.868Z,62.50
2019-02-18T11:25:59.381Z,62.40
2019-02-18T11:28:28.543Z,62.50
2019-02-18T11:30:57.615Z,62.40
2019-02-18T11:33:26.742Z,62.40
2019-02-18T11:35:55.798Z,62.30
2019-02-18T11:38:25.095Z,62.30
2019-02-18T11:40:54.223Z,62.40
2019-02-18T11:43:23.276Z,62.50
2019-02-18T11:45:53.000Z,62.40
2019-02-18T11:48:22.054Z,62.30
2019-02-18T11:50:51.506Z,62.30
2019-02-18T11:53:20.658Z,62.30
2019-02-18T11:55:49.652Z,62.40
2019-02-18T11:58:18.778Z,62.30
2019-02-18T12:00:48.177Z,62.30
2019-02-18T12:03:17.233Z,62.30
2019-02-18T12:05:46.614Z,62.30
2019-02-18T12:08:15.809Z,62.40
2019-02-18T12:10:44.930Z,62.50
2019-02-18T12:13:14.045Z,62.40
2019-02-18T12:15:43.384Z,62.40
2019-02-18T12:18:13.880Z,62.30
2019-02-18T12:20:43.090Z,63.00
2019-02-18T12:23:12.478Z,62.30
2019-02-18T12:25:41.861Z,62.30
2019-02-18T12:28:11.928Z,62.30
2019-02-18T12:30:40.975Z,62.30
2019-02-18T12:33:10.342Z,62.30
2019-02-18T12:35:39.487Z,62.30
2019-02-18T12:38:08.382Z,62.40
2019-02-18T12:40:37.430Z,62.30
2019-02-18T12:43:07.178Z,62.30
2019-02-18T12:45:36.167Z,62.40
2019-02-18T12:48:05.306Z,62.30
2019-02-18T12:50:35.690Z,62.30
2019-02-18T12:53:05.109Z,62.40
2019-02-18T12:55:34.370Z,62.40
2019-02-18T12:58:03.987Z,62.50
2019-02-18T13:00:33.342Z,62.50
2019-02-18T13:03:02.390Z,62.50
2019-02-18T13:05:31.889Z,62.50
2019-02-18T13:08:02.845Z,62.50
2019-02-18T13:10:35.100Z,62.50
2019-02-18T13:13:03.056Z,62.60
2019-02-18T13:15:32.119Z,62.70
2019-02-18T13:20:30.207Z,62.80
2019-02-18T13:22:59.178Z,62.80
2019-02-18T13:25:28.709Z,62.70
2019-02-18T13:27:57.780Z,62.60
2019-02-18T13:30:28.438Z,62.70
2019-02-18T13:32:57.493Z,62.60
2019-02-18T13:35:26.602Z,62.60
2019-02-18T13:37:55.717Z,62.60
2019-02-18T13:40:25.146Z,62.60
2019-02-18T13:42:54.457Z,62.70
2019-02-18T13:45:23.514Z,62.70
2019-02-18T13:47:52.668Z,62.70
2019-02-18T13:50:22.046Z,62.70
2019-02-18T13:52:51.015Z,62.80
2019-02-18T13:55:20.082Z,62.70
2019-02-18T13:57:49.162Z,62.70
2019-02-18T14:00:20.845Z,62.70
2019-02-18T14:02:50.311Z,62.80
2019-02-18T14:05:21.755Z,62.80
2019-02-18T14:07:50.823Z,62.80
2019-02-18T14:10:20.919Z,62.80
2019-02-18T14:12:50.354Z,62.70
2019-02-18T14:15:19.939Z,62.70
2019-02-18T14:17:50.544Z,62.80
2019-02-18T14:20:19.971Z,62.80
2019-02-18T14:22:49.030Z,62.80
2019-02-18T14:25:18.106Z,63.60
2019-02-18T14:27:47.374Z,63.00
2019-02-18T14:30:17.011Z,63.00
2019-02-18T14:32:46.139Z,62.80
2019-02-18T14:35:16.186Z,63.60
2019-02-18T14:37:45.252Z,62.80
2019-02-18T14:40:15.859Z,62.90
2019-02-18T14:42:45.623Z,62.80
2019-02-18T14:45:14.754Z,62.90
2019-02-18T14:47:43.729Z,62.90
2019-02-18T14:50:13.214Z,63.00
2019-02-18T14:52:42.271Z,63.00
2019-02-18T14:55:11.332Z,63.00
2019-02-18T14:57:40.411Z,63.10
2019-02-18T15:00:23.841Z,63.20
2019-02-18T15:02:54.863Z,63.10
2019-02-18T15:05:24.982Z,63.80
2019-02-18T15:07:54.030Z,62.90
2019-02-18T15:10:23.194Z,62.90
2019-02-18T15:12:52.319Z,62.80
2019-02-18T15:15:21.371Z,62.60
2019-02-18T15:17:50.559Z,63.60
2019-02-18T15:20:19.903Z,63.60
2019-02-18T15:22:48.963Z,63.70
2019-02-18T15:25:18.869Z,63.90
2019-02-18T15:27:48.337Z,64.30
2019-02-18T15:30:17.932Z,64.60
2019-02-18T15:32:47.383Z,65.20
2019-02-18T15:35:16.934Z,65.80
2019-02-18T15:37:45.979Z,65.70
2019-02-18T15:40:17.066Z,65.60
2019-02-18T15:42:46.597Z,65.20
2019-02-18T15:45:15.731Z,65.50
2019-02-18T15:47:45.367Z,64.70
2019-02-18T15:50:15.387Z,64.50
2019-02-18T15:52:44.429Z,64.40
2019-02-18T15:55:13.479Z,64.30
2019-02-18T15:57:42.514Z,64.30
2019-02-18T16:00:15.322Z,64.30
2019-02-18T16:02:44.434Z,64.60
2019-02-18T16:05:13.494Z,64.50
2019-02-18T16:07:42.485Z,64.50
2019-02-18T16:10:11.642Z,64.30
2019-02-18T16:12:40.775Z,64.20
2019-02-18T16:15:09.941Z,64.30
2019-02-18T16:17:39.222Z,64.20
2019-02-18T16:20:11.879Z,63.90
2019-02-18T16:22:41.007Z,63.70
2019-02-18T16:25:14.033Z,63.40
2019-02-18T16:27:43.079Z,62.50
2019-02-18T16:30:13.841Z,62.00
2019-02-18T16:32:43.674Z,62.00
2019-02-18T16:35:12.659Z,61.90
2019-02-18T16:37:42.317Z,61.50
2019-02-18T16:40:13.671Z,61.40
2019-02-18T16:42:42.718Z,61.50
2019-02-18T16:45:15.844Z,61.70
2019-02-18T16:47:45.300Z,61.60
2019-02-18T16:50:14.477Z,61.40
2019-02-18T16:52:43.514Z,61.90
2019-02-18T16:55:12.704Z,61.90
2019-02-18T16:57:41.886Z,62.10
2019-02-18T17:00:21.057Z,61.50
2019-02-18T17:02:51.024Z,61.00
2019-02-18T17:05:20.227Z,61.20
2019-02-18T17:07:49.302Z,61.20
2019-02-18T17:10:18.388Z,61.20
2019-02-18T17:12:47.818Z,61.50
2019-02-18T17:15:16.825Z,61.20
2019-02-18T17:17:46.085Z,61.10
2019-02-18T17:20:15.233Z,61.40
2019-02-18T17:22:44.453Z,61.30
2019-02-18T17:25:13.632Z,61.30
2019-02-18T17:27:43.189Z,61.60
2019-02-18T17:30:13.583Z,61.30
2019-02-18T17:32:42.989Z,61.20
2019-02-18T17:35:12.686Z,61.30
2019-02-18T17:37:41.789Z,61.50
2019-02-18T17:40:11.731Z,61.50
2019-02-18T17:42:41.254Z,61.90
2019-02-18T17:45:12.705Z,62.30
2019-02-18T17:47:41.990Z,62.80
2019-02-18T17:50:13.126Z,63.80
2019-02-18T17:52:42.903Z,64.60
2019-02-18T17:55:12.964Z,65.60
2019-02-18T17:57:42.275Z,66.60
2019-02-18T18:00:14.103Z,66.30
2019-02-18T18:02:43.242Z,63.20
2019-02-18T18:05:12.375Z,63.00
2019-02-18T18:07:42.014Z,62.90
2019-02-18T18:10:12.083Z,63.10
2019-02-18T18:12:41.222Z,63.30
2019-02-18T18:15:11.229Z,63.20
2019-02-18T18:17:40.734Z,63.00
2019-02-18T18:20:10.664Z,63.10
2019-02-18T18:22:39.993Z,63.10
2019-02-18T18:25:09.311Z,63.40
2019-02-18T18:27:38.362Z,63.70
2019-02-18T18:30:09.605Z,64.10
2019-02-18T18:32:38.929Z,64.50
2019-02-18T18:35:09.932Z,64.90
2019-02-18T18:37:39.539Z,65.10
2019-02-18T18:40:10.615Z,65.20
2019-02-18T18:42:39.594Z,65.40
2019-02-18T18:45:10.206Z,65.40
2019-02-18T18:47:39.346Z,65.30
2019-02-18T18:50:11.350Z,65.30
2019-02-18T18:52:40.355Z,65.40
2019-02-18T18:55:09.473Z,65.40
2019-02-18T18:57:38.602Z,65.40
2019-02-18T19:00:10.037Z,65.30
2019-02-18T19:02:42.291Z,65.20
2019-02-18T19:05:11.430Z,65.20
2019-02-18T19:07:41.082Z,65.40
2019-02-18T19:10:11.989Z,65.20
2019-02-18T19:12:41.286Z,65.10
2019-02-18T19:15:11.354Z,65.20
2019-02-18T19:17:40.477Z,64.90
2019-02-18T19:20:09.629Z,64.90
2019-02-18T19:22:38.922Z,65.20
2019-02-18T19:25:08.260Z,65.30
2019-02-18T19:27:37.642Z,65.50
2019-02-18T19:30:08.167Z,65.70
2019-02-18T19:32:37.721Z,66.10
2019-02-18T19:35:07.795Z,66.10
2019-02-18T19:37:36.882Z,66.20
2019-02-18T19:40:08.791Z,66.40
2019-02-18T19:42:37.983Z,66.30
2019-02-18T19:45:09.841Z,66.10
2019-02-18T19:47:39.647Z,65.60
2019-02-18T19:50:08.906Z,65.30
2019-02-18T19:52:40.027Z,65.30
2019-02-18T19:55:09.281Z,65.40
2019-02-18T19:57:38.323Z,65.70
2019-02-18T20:00:12.323Z,65.90
2019-02-18T20:02:41.598Z,66.30
2019-02-18T20:05:12.497Z,66.50
2019-02-18T20:07:44.240Z,66.90
2019-02-18T20:10:15.701Z,66.90
2019-02-18T20:12:44.835Z,66.90
2019-02-18T20:15:14.598Z,67.90
2019-02-18T20:17:44.970Z,67.30
2019-02-18T20:20:14.243Z,66.90
2019-02-18T20:22:43.335Z,66.50
2019-02-18T20:25:12.607Z,66.70
2019-02-18T20:27:41.862Z,66.60
2019-02-18T20:30:11.894Z,66.60
2019-02-18T20:32:41.294Z,66.80
2019-02-18T20:35:10.857Z,67.00
2019-02-18T20:37:39.965Z,69.90
2019-02-18T20:40:11.208Z,69.90
2019-02-18T20:42:40.884Z,71.90
2019-02-18T20:45:11.206Z,72.60
2019-02-18T20:47:40.379Z,72.40
2019-02-18T20:50:10.087Z,72.20
2019-02-18T20:52:39.603Z,72.60
2019-02-18T20:55:10.011Z,71.90
2019-02-18T20:57:39.075Z,71.50
2019-02-18T21:00:14.569Z,71.50
2019-02-18T21:02:43.633Z,71.10
2019-02-18T21:07:50.227Z,71.60
2019-02-18T21:10:19.331Z,71.70
2019-02-18T21:12:48.518Z,71.20
2019-02-18T21:15:17.596Z,70.80
2019-02-18T21:17:46.697Z,72.40
2019-02-18T21:20:16.007Z,73.70
2019-02-18T21:22:45.079Z,73.50
2019-02-18T21:25:14.135Z,73.10
2019-02-18T21:27:43.173Z,73.10
2019-02-18T21:30:12.611Z,72.90
2019-02-18T21:32:41.890Z,73.70
2019-02-18T21:35:11.191Z,73.80
2019-02-18T21:37:40.292Z,73.30
2019-02-18T21:40:09.629Z,73.60
2019-02-18T21:42:38.574Z,72.00
2019-02-18T21:45:08.224Z,71.80
2019-02-18T21:47:37.332Z,71.50
2019-02-18T21:50:06.804Z,71.40
2019-02-18T21:52:36.119Z,70.70
2019-02-18T21:55:05.126Z,70.30
2019-02-18T21:57:34.089Z,71.00
2019-02-18T22:00:04.771Z,71.10
2019-02-18T22:02:33.748Z,71.30
2019-02-18T22:05:02.799Z,71.30
2019-02-18T22:07:32.447Z,71.60
2019-02-18T22:10:01.850Z,71.70
2019-02-18T22:12:30.930Z,72.10
2019-02-18T22:14:59.996Z,72.40
2019-02-18T22:17:29.119Z,72.40
2019-02-18T22:19:58.178Z,72.50
2019-02-18T22:22:27.585Z,72.80
2019-02-18T22:24:56.750Z,72.90
2019-02-18T22:27:25.800Z,72.90
2019-02-18T22:29:54.939Z,72.80
2019-02-18T22:32:24.109Z,72.80
2019-02-18T22:34:53.147Z,72.60
2019-02-18T22:37:22.557Z,72.40
2019-02-18T22:39:52.074Z,72.60
2019-02-18T22:42:21.847Z,72.70
2019-02-18T22:44:51.010Z,72.10
2019-02-18T22:47:22.339Z,72.30
2019-02-18T22:49:51.210Z,72.10
2019-02-18T22:52:20.407Z,72.10
2019-02-18T22:54:50.173Z,72.00
2019-02-18T22:57:19.148Z,72.00
2019-02-18T22:59:48.214Z,71.80
2019-02-18T23:02:17.183Z,71.80
2019-02-18T23:04:46.529Z,71.60
2019-02-18T23:07:15.650Z,71.50
2019-02-18T23:09:45.256Z,71.60
2019-02-18T23:12:14.310Z,71.70
2019-02-18T23:14:50.310Z,71.70
2019-02-18T23:17:14.611Z,71.20
2019-02-18T23:19:43.941Z,71.20
2019-02-18T23:22:13.024Z,71.20
2019-02-18T23:24:42.083Z,71.60
2019-02-18T23:27:11.689Z,71.10
2019-02-18T23:29:40.757Z,71.20
2019-02-18T23:32:10.431Z,71.20
2019-02-18T23:34:39.421Z,71.20
2019-02-18T23:37:08.488Z,71.20
2019-02-18T23:39:37.451Z,71.20
2019-02-18T23:42:06.542Z,71.30
2019-02-18T23:44:35.628Z,71.40
2019-02-18T23:47:05.008Z,71.00
2019-02-18T23:49:34.045Z,71.20
2019-02-18T23:52:03.266Z,71.00
2019-02-18T23:54:32.238Z,70.90
2019-02-18T23:57:01.290Z,71.10
2019-02-18T23:59:30.314Z,71.10
